createdAt,value
2019-05-05T00:02:40.103Z,98455.99
2019-05-05T00:05:24.632Z,98455.05
2019-05-05T00:07:54.910Z,98468.89
2019-05-05T00:10:36.019Z,98475.41
2019-05-05T00:13:20.139Z,98468.79
2019-05-05T00:16:15.270Z,98476.08
2019-05-05T00:18:47.192Z,98481.35
2019-05-05T00:21:17.656Z,98486.17
2019-05-05T00:23:48.378Z,98481.84
2019-05-05T00:26:18.749Z,98477.94
2019-05-05T00:28:49.099Z,98473.50
2019-05-05T00:31:19.561Z,98473.99
2019-05-05T00:33:50.161Z,98476.27
2019-05-05T00:36:20.578Z,98469.02
2019-05-05T00:38:50.763Z,98470.22
2019-05-05T00:41:20.999Z,98468.47
2019-05-05T00:43:51.123Z,98465.61
2019-05-05T00:46:40.184Z,98461.05
2019-05-05T00:49:10.314Z,98467.84
2019-05-05T00:51:40.406Z,98469.80
2019-05-05T00:54:10.559Z,98470.17
2019-05-05T00:56:40.665Z,98484.99
2019-05-05T00:59:14.665Z,98482.03
2019-05-05T01:02:01.043Z,98479.04
2019-05-05T01:04:38.687Z,98477.74
2019-05-05T01:07:09.758Z,98477.31
2019-05-05T01:09:42.226Z,98479.27
2019-05-05T01:12:14.927Z,98473.89
2019-05-05T01:14:45.017Z,98480.77
2019-05-05T01:17:15.149Z,98481.50
2019-05-05T01:19:59.436Z,98481.62
2019-05-05T01:22:17.359Z,98478.72
2019-05-05T01:24:47.634Z,98485.73
2019-05-05T01:27:17.937Z,98488.03
2019-05-05T01:29:48.145Z,98488.25
2019-05-05T01:32:24.681Z,98497.53
2019-05-05T01:34:55.302Z,98504.78
2019-05-05T01:37:34.919Z,98508.68
2019-05-05T01:40:24.817Z,98524.05
2019-05-05T01:42:55.083Z,98526.69
2019-05-05T01:45:25.399Z,98533.38
2019-05-05T01:47:55.512Z,98529.52
2019-05-05T01:50:25.803Z,98535.86
2019-05-05T01:52:58.060Z,98537.87
2019-05-05T01:55:28.274Z,98543.48
2019-05-05T01:57:58.954Z,98540.80
2019-05-05T02:00:29.121Z,98547.27
2019-05-05T02:02:59.207Z,98541.34
2019-05-05T02:05:29.347Z,98540.78
2019-05-05T02:07:59.460Z,98543.59
2019-05-05T02:10:29.598Z,98545.54
2019-05-05T02:12:59.716Z,98545.08
2019-05-05T02:15:29.902Z,98553.56
2019-05-05T02:18:00.004Z,98543.28
2019-05-05T02:20:54.322Z,98548.88
2019-05-05T02:23:24.709Z,98552.25
2019-05-05T02:25:55.379Z,98550.54
2019-05-05T02:28:28.233Z,98550.41
2019-05-05T02:31:17.538Z,98548.27
2019-05-05T02:33:47.779Z,98554.67
2019-05-05T02:36:18.049Z,98549.21
2019-05-05T02:38:48.214Z,98548.75
2019-05-05T02:41:20.293Z,98552.65
2019-05-05T02:43:50.693Z,98548.00
2019-05-05T02:46:55.016Z,98551.30
2019-05-05T02:49:25.552Z,98552.56
2019-05-05T02:51:56.627Z,98555.75
2019-05-05T02:54:27.390Z,98553.79
2019-05-05T02:56:57.880Z,98551.03
2019-05-05T02:59:43.483Z,98560.00
2019-05-05T03:02:23.590Z,98561.66
2019-05-05T03:04:53.868Z,98556.31
2019-05-05T03:07:27.182Z,98564.81
2019-05-05T03:09:59.712Z,98565.98
2019-05-05T03:12:34.608Z,98571.37
2019-05-05T03:15:07.070Z,98566.11
2019-05-05T03:17:37.460Z,98568.47
2019-05-05T03:20:08.247Z,98571.13
2019-05-05T03:22:38.696Z,98581.97
2019-05-05T03:25:08.872Z,98579.68
2019-05-05T03:27:39.110Z,98577.44
2019-05-05T03:30:09.420Z,98584.30
2019-05-05T03:32:39.844Z,98583.09
2019-05-05T03:35:10.220Z,98587.90
2019-05-05T03:37:40.385Z,98587.30
2019-05-05T03:40:19.609Z,98585.42
2019-05-05T03:42:58.582Z,98585.99
2019-05-05T03:45:34.194Z,98579.43
2019-05-05T03:48:04.751Z,98586.94
2019-05-05T03:50:35.319Z,98590.84
2019-05-05T03:53:05.751Z,98596.60
2019-05-05T03:55:36.381Z,98599.39
2019-05-05T03:58:06.942Z,98601.71
2019-05-05T04:01:57.162Z,98598.63
2019-05-05T04:04:33.641Z,98605.22
2019-05-05T04:07:04.689Z,98613.15
2019-05-05T04:09:35.276Z,98610.67
2019-05-05T04:12:05.516Z,98614.52
2019-05-05T04:14:35.669Z,98610.54
2019-05-05T04:17:14.047Z,98615.02
2019-05-05T04:19:46.237Z,98605.71
2019-05-05T04:22:16.380Z,98611.92
2019-05-05T04:24:46.515Z,98610.55
2019-05-05T04:27:16.634Z,98613.81
2019-05-05T04:29:46.760Z,98610.77
2019-05-05T04:32:16.896Z,98613.55
2019-05-05T04:34:47.044Z,98614.98
2019-05-05T04:37:17.192Z,98615.75
2019-05-05T04:39:47.420Z,98623.34
2019-05-05T04:42:17.552Z,98634.09
2019-05-05T04:44:47.857Z,98628.91
2019-05-05T04:47:23.861Z,98633.73
2019-05-05T04:50:14.945Z,98636.78
2019-05-05T04:52:44.845Z,98634.50
2019-05-05T04:55:15.011Z,98637.63
2019-05-05T04:57:45.123Z,98637.68
2019-05-05T05:00:15.312Z,98637.47
2019-05-05T05:02:55.352Z,98644.05
2019-05-05T05:05:33.772Z,98630.88
2019-05-05T05:08:03.924Z,98640.64
2019-05-05T05:10:34.689Z,98634.28
2019-05-05T05:13:04.855Z,98638.77
2019-05-05T05:15:35.015Z,98649.10
2019-05-05T05:18:14.733Z,98650.00
2019-05-05T05:20:46.065Z,98655.28
2019-05-05T05:23:16.362Z,98657.71
2019-05-05T05:25:46.779Z,98663.58
2019-05-05T05:28:17.736Z,98660.66
2019-05-05T05:30:47.929Z,98659.89
2019-05-05T05:33:19.327Z,98661.39
2019-05-05T05:35:50.884Z,98660.13
2019-05-05T05:38:20.995Z,98668.34
2019-05-05T05:41:00.349Z,98664.66
2019-05-05T05:43:48.426Z,98672.80
2019-05-05T05:46:45.786Z,98680.27
2019-05-05T05:49:26.472Z,98682.80
2019-05-05T05:51:56.683Z,98683.80
2019-05-05T05:54:27.259Z,98687.16
2019-05-05T05:56:57.659Z,98691.94
2019-05-05T05:59:27.773Z,98693.77
2019-05-05T06:02:09.182Z,98691.55
2019-05-05T06:04:30.605Z,98699.86
2019-05-05T06:07:00.825Z,98698.31
2019-05-05T06:09:31.115Z,98702.94
2019-05-05T06:12:03.439Z,98707.80
2019-05-05T06:14:34.158Z,98705.83
2019-05-05T06:17:04.853Z,98700.57
2019-05-05T06:19:34.966Z,98703.92
2019-05-05T06:22:05.097Z,98694.11
2019-05-05T06:24:35.492Z,98699.91
2019-05-05T06:27:05.832Z,98698.76
2019-05-05T06:29:36.478Z,98698.34
2019-05-05T06:32:06.964Z,98704.25
2019-05-05T06:34:38.945Z,98716.99
2019-05-05T06:37:09.428Z,98719.18
2019-05-05T06:39:40.176Z,98723.16
2019-05-05T06:42:38.892Z,98719.33
2019-05-05T06:45:16.920Z,98717.88
2019-05-05T06:47:47.042Z,98724.62
2019-05-05T06:50:18.331Z,98731.00
2019-05-05T06:52:48.500Z,98738.88
2019-05-05T06:55:20.000Z,98726.73
2019-05-05T06:57:50.176Z,98724.44
2019-05-05T07:00:21.841Z,98722.30
2019-05-05T07:02:54.078Z,98730.61
2019-05-05T07:05:24.393Z,98733.49
2019-05-05T07:07:54.517Z,98734.29
2019-05-05T07:10:25.064Z,98737.88
2019-05-05T07:12:55.422Z,98746.65
2019-05-05T07:15:25.731Z,98746.57
2019-05-05T07:17:55.993Z,98737.80
2019-05-05T07:20:26.204Z,98748.53
2019-05-05T07:23:02.134Z,98757.21
2019-05-05T07:25:39.854Z,98759.34
2019-05-05T07:28:00.402Z,98765.97
2019-05-05T07:30:30.694Z,98759.06
2019-05-05T07:33:01.379Z,98766.33
2019-05-05T07:35:58.667Z,98769.38
2019-05-05T07:38:24.411Z,98770.25
2019-05-05T07:40:55.956Z,98776.06
2019-05-05T07:43:26.275Z,98774.45
2019-05-05T07:45:56.562Z,98779.54
2019-05-05T07:48:27.069Z,98779.36
2019-05-05T07:51:02.083Z,98784.84
2019-05-05T07:53:29.209Z,98788.57
2019-05-05T07:55:59.301Z,98789.40
2019-05-05T07:58:29.447Z,98792.64
2019-05-05T08:00:59.599Z,98789.58
2019-05-05T08:03:30.039Z,98793.62
2019-05-05T08:06:00.157Z,98792.81
2019-05-05T08:08:30.390Z,98797.16
2019-05-05T08:11:00.913Z,98802.53
2019-05-05T08:13:31.041Z,98798.55
2019-05-05T08:16:03.807Z,98809.17
2019-05-05T08:18:47.025Z,98803.70
2019-05-05T08:21:18.186Z,98802.34
2019-05-05T08:24:08.369Z,98809.77
2019-05-05T08:26:48.136Z,98813.66
2019-05-05T08:29:36.753Z,98817.48
2019-05-05T08:32:25.264Z,98809.01
2019-05-05T08:35:00.536Z,98808.53
2019-05-05T08:37:27.232Z,98814.16
2019-05-05T08:39:57.416Z,98814.33
2019-05-05T08:42:27.537Z,98820.62
2019-05-05T08:44:57.863Z,98818.00
2019-05-05T08:47:28.362Z,98809.25
2019-05-05T08:49:58.553Z,98807.58
2019-05-05T08:52:28.655Z,98807.09
2019-05-05T08:54:58.809Z,98807.13
2019-05-05T08:57:28.992Z,98810.38
2019-05-05T09:00:00.541Z,98817.05
2019-05-05T09:02:33.150Z,98800.41
2019-05-05T09:05:04.291Z,98804.52
2019-05-05T09:07:34.803Z,98797.81
2019-05-05T09:10:05.393Z,98797.27
2019-05-05T09:12:35.983Z,98799.88
2019-05-05T09:15:06.120Z,98799.84
2019-05-05T09:17:36.472Z,98796.02
2019-05-05T09:20:06.765Z,98786.24
2019-05-05T09:22:36.922Z,98792.00
2019-05-05T09:25:26.058Z,98784.34
2019-05-05T09:28:06.053Z,98786.03
2019-05-05T09:30:38.539Z,98790.95
2019-05-05T09:33:08.875Z,98784.56
2019-05-05T09:35:39.089Z,98791.02
2019-05-05T09:38:09.202Z,98786.69
2019-05-05T09:40:40.772Z,98780.77
2019-05-05T09:43:11.350Z,98782.20
2019-05-05T09:45:41.500Z,98787.76
2019-05-05T09:48:13.845Z,98789.84
2019-05-05T09:50:43.938Z,98787.75
2019-05-05T09:53:14.709Z,98796.23
2019-05-05T09:55:46.157Z,98796.05
2019-05-05T09:58:16.367Z,98799.22
2019-05-05T10:00:47.094Z,98797.13
2019-05-05T10:03:17.250Z,98803.27
2019-05-05T10:05:47.370Z,98802.75
2019-05-05T10:08:17.531Z,98807.83
2019-05-05T10:10:47.762Z,98804.73
2019-05-05T10:13:19.123Z,98804.73
2019-05-05T10:15:49.293Z,98805.70
2019-05-05T10:18:19.471Z,98800.71
2019-05-05T10:20:50.069Z,98804.20
2019-05-05T10:23:21.059Z,98800.80
2019-05-05T10:25:54.239Z,98801.49
2019-05-05T10:28:24.700Z,98797.35
2019-05-05T10:30:54.827Z,98804.11
2019-05-05T10:33:25.257Z,98798.92
2019-05-05T10:35:55.404Z,98801.90
2019-05-05T10:38:25.593Z,98798.35
2019-05-05T10:40:56.827Z,98806.66
2019-05-05T10:43:27.055Z,98801.31
2019-05-05T10:45:57.191Z,98805.98
2019-05-05T10:48:27.347Z,98803.05
2019-05-05T10:50:58.383Z,98804.23
2019-05-05T10:53:28.749Z,98796.58
2019-05-05T10:55:59.182Z,98799.58
2019-05-05T10:58:29.306Z,98802.66
2019-05-05T11:01:01.494Z,98811.16
2019-05-05T11:03:34.141Z,98805.64
2019-05-05T11:06:04.607Z,98812.77
2019-05-05T11:08:35.735Z,98819.67
2019-05-05T11:11:05.907Z,98815.29
2019-05-05T11:13:36.145Z,98815.41
2019-05-05T11:16:06.417Z,98818.35
2019-05-05T11:18:36.744Z,98811.37
2019-05-05T11:21:06.878Z,98821.67
2019-05-05T11:23:37.057Z,98817.42
2019-05-05T11:26:07.175Z,98815.03
2019-05-05T11:28:37.449Z,98813.00
2019-05-05T11:31:07.816Z,98808.44
2019-05-05T11:34:08.844Z,98814.36
2019-05-05T11:36:58.287Z,98814.23
2019-05-05T11:39:28.511Z,98808.66
2019-05-05T11:41:58.965Z,98811.06
2019-05-05T11:44:29.183Z,98807.61
2019-05-05T11:46:59.427Z,98805.62
2019-05-05T11:49:29.597Z,98808.80
2019-05-05T11:51:59.780Z,98811.28
2019-05-05T11:54:30.065Z,98819.36
2019-05-05T11:57:00.214Z,98814.17
2019-05-05T11:59:30.388Z,98809.67
2019-05-05T12:02:00.534Z,98809.68
2019-05-05T12:04:31.346Z,98804.80
2019-05-05T12:07:03.924Z,98812.12
2019-05-05T12:09:55.811Z,98808.65
2019-05-05T12:12:25.998Z,98807.19
2019-05-05T12:14:56.153Z,98803.86
2019-05-05T12:17:37.056Z,98796.95
2019-05-05T12:20:08.381Z,98807.92
2019-05-05T12:22:39.902Z,98795.74
2019-05-05T12:25:28.706Z,98807.61
2019-05-05T12:28:04.373Z,98801.81
2019-05-05T12:30:36.343Z,98811.80
2019-05-05T12:33:06.550Z,98817.41
2019-05-05T12:35:36.855Z,98809.94
2019-05-05T12:38:07.408Z,98815.66
2019-05-05T12:40:37.676Z,98811.23
2019-05-05T12:43:08.130Z,98810.20
2019-05-05T12:45:40.031Z,98811.15
2019-05-05T12:48:15.956Z,98811.34
2019-05-05T12:50:46.747Z,98807.52
2019-05-05T12:53:17.045Z,98805.30
2019-05-05T12:55:47.288Z,98807.20
2019-05-05T12:58:17.494Z,98796.94
2019-05-05T13:01:05.264Z,98793.61
2019-05-05T13:03:35.463Z,98795.22
2019-05-05T13:06:05.798Z,98793.64
2019-05-05T13:08:36.207Z,98792.09
2019-05-05T13:11:06.496Z,98794.41
2019-05-05T13:13:36.972Z,98791.92
2019-05-05T13:16:07.225Z,98793.66
2019-05-05T13:18:37.414Z,98791.58
2019-05-05T13:21:23.615Z,98800.92
2019-05-05T13:24:01.499Z,98798.95
2019-05-05T13:26:45.281Z,98786.10
2019-05-05T13:29:15.435Z,98787.84
2019-05-05T13:31:45.681Z,98794.34
2019-05-05T13:34:16.290Z,98793.33
2019-05-05T13:36:46.434Z,98798.23
2019-05-05T13:39:16.787Z,98806.62
2019-05-05T13:41:47.041Z,98804.23
2019-05-05T13:44:24.734Z,98810.55
2019-05-05T13:46:54.929Z,98800.05
2019-05-05T13:49:31.783Z,98799.10
2019-05-05T13:52:04.632Z,98798.38
2019-05-05T13:54:35.145Z,98796.59
2019-05-05T13:57:05.526Z,98799.80
2019-05-05T13:59:35.732Z,98801.21
2019-05-05T14:02:06.006Z,98798.00
2019-05-05T14:04:36.326Z,98794.17
2019-05-05T14:07:06.468Z,98790.98
2019-05-05T14:09:36.878Z,98786.43
2019-05-05T14:12:08.429Z,98782.30
2019-05-05T14:15:04.073Z,98777.63
2019-05-05T14:17:35.428Z,98776.05
2019-05-05T14:20:11.758Z,98776.38
2019-05-05T14:22:39.692Z,98784.06
2019-05-05T14:25:14.708Z,98785.38
2019-05-05T14:28:03.930Z,98784.77
2019-05-05T14:31:01.568Z,98777.23
2019-05-05T14:34:04.436Z,98784.14
2019-05-05T14:37:04.859Z,98779.22
2019-05-05T14:39:35.866Z,98783.44
2019-05-05T14:42:07.629Z,98784.28
2019-05-05T14:44:38.143Z,98790.25
2019-05-05T14:47:09.763Z,98784.27
2019-05-05T14:49:39.958Z,98791.81
2019-05-05T14:52:10.175Z,98788.20
2019-05-05T14:54:40.306Z,98790.52
2019-05-05T14:57:10.504Z,98787.16
2019-05-05T14:59:40.719Z,98783.67
2019-05-05T15:02:10.951Z,98790.70
2019-05-05T15:04:44.445Z,98787.04
2019-05-05T15:07:34.158Z,98788.35
2019-05-05T15:10:24.048Z,98785.12
2019-05-05T15:12:58.164Z,98784.41
2019-05-05T15:15:28.430Z,98786.44
2019-05-05T15:17:58.873Z,98787.63
2019-05-05T15:20:29.112Z,98787.50
2019-05-05T15:22:59.328Z,98790.58
2019-05-05T15:25:30.552Z,98787.21
2019-05-05T15:28:00.912Z,98788.08
2019-05-05T15:30:30.995Z,98792.85
2019-05-05T15:33:01.381Z,98793.31
2019-05-05T15:35:31.635Z,98791.08
2019-05-05T15:38:04.358Z,98792.39
2019-05-05T15:40:34.319Z,98795.61
2019-05-05T15:43:05.873Z,98797.39
2019-05-05T15:45:35.991Z,98796.67
2019-05-05T15:48:06.148Z,98795.02
2019-05-05T15:50:36.289Z,98795.35
2019-05-05T15:53:07.764Z,98795.23
2019-05-05T15:55:38.068Z,98793.33
2019-05-05T15:58:08.421Z,98800.58
2019-05-05T16:00:40.127Z,98797.52
2019-05-05T16:03:10.683Z,98793.73
2019-05-05T16:05:40.996Z,98797.52
2019-05-05T16:08:11.311Z,98802.17
2019-05-05T16:10:44.008Z,98803.52
2019-05-05T16:13:13.951Z,98797.98
2019-05-05T16:15:59.310Z,98798.50
2019-05-05T16:19:04.898Z,98799.33
2019-05-05T16:21:57.468Z,98801.83
2019-05-05T16:24:30.946Z,98799.80
2019-05-05T16:27:01.046Z,98798.86
2019-05-05T16:29:31.286Z,98792.08
2019-05-05T16:32:01.439Z,98803.84
2019-05-05T16:34:33.609Z,98802.59
2019-05-05T16:37:03.981Z,98795.00
2019-05-05T16:39:34.638Z,98797.37
2019-05-05T16:42:04.862Z,98795.86
2019-05-05T16:44:35.151Z,98792.25
2019-05-05T16:47:05.434Z,98798.22
2019-05-05T16:49:36.015Z,98797.84
2019-05-05T16:52:14.463Z,98806.81
2019-05-05T16:55:18.540Z,98800.30
2019-05-05T16:57:49.125Z,98802.83
2019-05-05T17:00:25.503Z,98801.77
2019-05-05T17:02:53.786Z,98808.27
2019-05-05T17:05:24.479Z,98800.63
2019-05-05T17:07:56.425Z,98801.23
2019-05-05T17:10:27.789Z,98801.16
2019-05-05T17:12:59.821Z,98795.84
2019-05-05T17:15:53.639Z,98806.27
2019-05-05T17:18:55.987Z,98805.67
2019-05-05T17:21:30.830Z,98812.03
2019-05-05T17:24:01.016Z,98818.81
2019-05-05T17:26:31.428Z,98821.19
2019-05-05T17:29:03.637Z,98824.24
2019-05-05T17:31:34.533Z,98822.78
2019-05-05T17:34:05.005Z,98826.33
2019-05-05T17:36:36.405Z,98825.57
2019-05-05T17:39:08.668Z,98828.19
2019-05-05T17:41:58.822Z,98825.55
2019-05-05T17:44:34.567Z,98833.56
2019-05-05T17:47:13.827Z,98832.95
2019-05-05T17:50:03.991Z,98832.23
2019-05-05T17:52:41.389Z,98834.42
2019-05-05T17:55:28.555Z,98831.80
2019-05-05T17:58:02.399Z,98829.27
2019-05-05T18:00:34.332Z,98837.61
2019-05-05T18:03:05.678Z,98838.66
2019-05-05T18:06:03.859Z,98838.98
2019-05-05T18:08:39.977Z,98836.47
2019-05-05T18:11:16.965Z,98840.88
2019-05-05T18:13:51.733Z,98847.75
2019-05-05T18:16:25.303Z,98850.10
2019-05-05T18:18:54.923Z,98854.37
2019-05-05T18:21:25.083Z,98856.84
2019-05-05T18:23:55.416Z,98856.58
2019-05-05T18:27:01.744Z,98859.11
2019-05-05T18:29:33.906Z,98857.33
2019-05-05T18:32:24.501Z,98858.80
2019-05-05T18:34:56.379Z,98865.72
2019-05-05T18:37:29.796Z,98864.60
2019-05-05T18:40:03.923Z,98861.98
2019-05-05T18:42:35.450Z,98864.84
2019-05-05T18:45:10.123Z,98863.75
2019-05-05T18:47:43.327Z,98861.25
2019-05-05T18:50:13.705Z,98862.91
2019-05-05T18:52:46.981Z,98865.37
2019-05-05T18:55:16.233Z,98864.32
2019-05-05T18:57:46.537Z,98880.73
2019-05-05T19:00:29.358Z,98879.42
2019-05-05T19:03:17.472Z,98877.00
2019-05-05T19:05:53.564Z,98880.72
2019-05-05T19:08:32.129Z,98881.98
2019-05-05T19:11:12.921Z,98874.51
2019-05-05T19:13:44.719Z,98880.99
2019-05-05T19:16:25.489Z,98885.95
2019-05-05T19:19:06.774Z,98883.09
2019-05-05T19:21:54.611Z,98893.69
2019-05-05T19:26:28.097Z,98896.84
2019-05-05T19:29:02.008Z,98894.16
2019-05-05T19:31:32.080Z,98898.67
2019-05-05T19:34:04.171Z,98903.89
2019-05-05T19:36:35.027Z,98896.38
2019-05-05T19:39:07.942Z,98900.20
2019-05-05T19:41:40.021Z,98900.42
2019-05-05T19:44:10.985Z,98902.48
2019-05-05T19:46:48.262Z,98906.22
2019-05-05T19:49:19.783Z,98916.13
2019-05-05T19:51:50.522Z,98915.76
2019-05-05T19:54:21.685Z,98913.42
2019-05-05T19:56:54.206Z,98912.90
2019-05-05T19:59:25.000Z,98913.42
2019-05-05T20:01:55.988Z,98920.23
2019-05-05T20:04:26.677Z,98918.64
2019-05-05T20:06:57.479Z,98918.00
2019-05-05T20:09:28.197Z,98922.91
2019-05-05T20:11:59.094Z,98925.05
2019-05-05T20:14:29.987Z,98922.57
2019-05-05T20:17:12.031Z,98926.44
2019-05-05T20:19:44.930Z,98921.84
2019-05-05T20:22:15.732Z,98921.48
2019-05-05T20:24:46.436Z,98918.72
2019-05-05T20:27:17.159Z,98920.78
2019-05-05T20:29:47.897Z,98928.07
2019-05-05T20:32:24.472Z,98928.64
2019-05-05T20:35:09.951Z,98928.92
2019-05-05T20:37:46.153Z,98929.38
2019-05-05T20:40:18.338Z,98936.08
2019-05-05T20:42:49.068Z,98930.31
2019-05-05T20:45:23.941Z,98930.63
2019-05-05T20:47:55.144Z,98928.13
2019-05-05T20:50:25.830Z,98932.64
2019-05-05T20:52:56.695Z,98924.45
2019-05-05T20:55:27.741Z,98926.86
2019-05-05T20:58:00.286Z,98926.16
2019-05-05T21:00:31.019Z,98917.64
2019-05-05T21:03:01.857Z,98912.91
2019-05-05T21:05:34.335Z,98908.86
2019-05-05T21:08:05.297Z,98902.17
2019-05-05T21:10:35.986Z,98906.88
2019-05-05T21:13:09.919Z,98913.20
2019-05-05T21:15:45.028Z,98911.69
2019-05-05T21:18:18.209Z,98907.61
2019-05-05T21:20:50.627Z,98906.98
2019-05-05T21:23:31.519Z,98911.14
2019-05-05T21:26:07.702Z,98907.39
2019-05-05T21:28:39.488Z,98909.14
2019-05-05T21:31:14.546Z,98909.23
2019-05-05T21:33:49.535Z,98911.00
2019-05-05T21:36:20.589Z,98908.64
2019-05-05T21:38:51.294Z,98908.41
2019-05-05T21:41:24.276Z,98908.92
2019-05-05T21:43:54.459Z,98909.16
2019-05-05T21:46:25.490Z,98911.86
2019-05-05T21:48:56.256Z,98914.56
2019-05-05T21:51:44.972Z,98908.52
2019-05-05T21:54:34.237Z,98908.38
2019-05-05T21:57:34.584Z,98906.42
2019-05-05T22:02:46.285Z,98904.48
2019-05-05T22:05:17.153Z,98908.15
2019-05-05T22:07:47.848Z,98906.72
2019-05-05T22:10:18.528Z,98905.42
2019-05-05T22:12:49.230Z,98907.02
2019-05-05T22:15:21.188Z,98915.30
2019-05-05T22:17:54.174Z,98903.08
2019-05-05T22:20:33.934Z,98905.74
2019-05-05T22:23:04.861Z,98901.00
2019-05-05T22:25:35.718Z,98908.27
2019-05-05T22:28:06.386Z,98907.77
2019-05-05T22:30:37.498Z,98906.73
2019-05-05T22:33:08.524Z,98908.12
2019-05-05T22:35:39.479Z,98913.87
2019-05-05T22:38:10.145Z,98912.85
2019-05-05T22:40:40.864Z,98911.09
2019-05-05T22:43:11.539Z,98908.25
2019-05-05T22:45:42.319Z,98902.66
2019-05-05T22:48:14.378Z,98909.50
2019-05-05T22:50:45.545Z,98907.91
2019-05-05T22:53:16.591Z,98910.47
2019-05-05T22:55:47.335Z,98912.46
2019-05-05T22:58:18.054Z,98901.94
2019-05-05T23:00:48.784Z,98909.02
2019-05-05T23:03:41.439Z,98902.95
2019-05-05T23:06:16.237Z,98910.64
2019-05-05T23:08:47.072Z,98906.21
2019-05-05T23:11:17.759Z,98903.24
2019-05-05T23:13:48.530Z,98913.62
2019-05-05T23:16:34.006Z,98908.14
2019-05-05T23:19:05.218Z,98912.59
2019-05-05T23:21:43.865Z,98914.83
2019-05-05T23:24:49.149Z,98915.18
2019-05-05T23:27:37.546Z,98919.63
2019-05-05T23:30:08.885Z,98915.55
2019-05-05T23:32:39.833Z,98922.23
2019-05-05T23:35:10.825Z,98921.55
2019-05-05T23:37:41.540Z,98920.34
2019-05-05T23:40:14.960Z,98914.86
2019-05-05T23:42:45.679Z,98912.92
2019-05-05T23:45:16.571Z,98916.27
2019-05-05T23:47:47.394Z,98912.69
2019-05-05T23:50:19.232Z,98916.81
2019-05-05T23:52:50.283Z,98907.81
2019-05-05T23:55:21.244Z,98915.75
2019-05-05T23:57:54.293Z,98914.75
